Time;durP1;ratioP1;P1;durP2;ratioP2;P2;SDS_P1;SDS_P2;PMS_P1;PMS_P2;Temp;Humidity;BMP_temperature;BMP_pressure;BME280_temperature;BME280_humidity;BME280_pressure;Samples;Min_cycle;Max_cycle;Signal;HPM_P1;HPM_P2
2021/12/07 00:00:52;;;;;;;96.65;82.53;;;21.60;46.50;;;;;;4794879;54;21043;-29
2021/12/07 00:05:52;;;;;;;90.55;74.95;;;21.60;45.90;;;;;;4798177;54;21008;-30
2021/12/07 00:10:57;;;;;;;96.15;79.00;;;21.70;45.80;;;;;;4796121;55;21035;-32
2021/12/07 00:16:01;;;;;;;90.47;76.93;;;21.60;45.80;;;;;;4794206;54;21012;-29
2021/12/07 00:21:03;;;;;;;94.20;78.10;;;21.70;45.80;;;;;;4794816;58;22334;-26
2021/12/07 00:26:05;;;;;;;89.07;74.30;;;21.60;45.70;;;;;;4862974;54;21027;-29
2021/12/07 00:31:14;;;;;;;89.55;75.93;;;21.60;45.70;;;;;;4807446;54;21015;-34
2021/12/07 00:36:15;;;;;;;91.00;74.75;;;21.60;45.70;;;;;;4825833;54;21640;-30
2021/12/07 00:41:16;;;;;;;88.45;73.85;;;21.60;45.60;;;;;;4821096;54;21083;-37
2021/12/07 00:46:19;;;;;;;89.07;74.12;;;21.60;45.60;;;;;;4795730;54;21202;-30
2021/12/07 00:51:19;;;;;;;85.62;71.28;;;21.60;46.40;;;;;;4795036;58;21501;-33
2021/12/07 00:56:21;;;;;;;84.47;71.50;;;21.70;45.70;;;;;;4816202;54;21012;-28
2021/12/07 01:01:22;;;;;;;85.20;68.97;;;21.60;45.60;;;;;;4817096;54;21510;-28
2021/12/07 01:06:34;;;;;;;84.97;70.15;;;21.60;45.50;;;;;;4823612;54;21008;-27
2021/12/07 01:27:37;;;;;;;80.53;65.25;;;21.60;45.50;;;;;;4795228;54;21106;-31
2021/12/07 01:33:31;;;;;;;80.43;66.55;;;21.60;45.30;;;;;;4809313;54;21518;-33
2021/12/07 02:04:15;;;;;;;75.30;62.97;;;21.60;45.20;;;;;;4794841;54;21063;-33
2021/12/07 02:09:15;;;;;;;70.90;59.35;;;21.60;45.10;;;;;;4843923;54;21071;-31
2021/12/07 02:14:17;;;;;;;73.07;61.17;;;21.60;45.00;;;;;;4794794;58;21032;-29
2021/12/07 02:19:18;;;;;;;70.72;59.97;;;21.60;45.10;;;;;;4814300;54;21462;-33
2021/12/07 02:24:20;;;;;;;74.53;60.47;;;21.60;45.00;;;;;;4851543;54;21077;-26
2021/12/07 02:29:21;;;;;;;69.40;58.67;;;21.60;45.00;;;;;;4816656;54;21032;-31
2021/12/07 02:34:24;;;;;;;68.47;57.33;;;21.60;45.00;;;;;;4795827;54;21075;-25
2021/12/07 02:39:37;;;;;;;67.60;56.88;;;21.60;45.00;;;;;;4815231;54;21577;-25
2021/12/07 02:44:38;;;;;;;66.22;56.45;;;21.50;44.90;;;;;;4801954;54;20976;-31
2021/12/07 02:49:38;;;;;;;69.25;57.90;;;21.60;45.00;;;;;;4802158;54;20988;-29
2021/12/07 02:54:44;;;;;;;67.15;56.45;;;21.50;44.80;;;;;;4794600;58;21060;-27
2021/12/07 02:59:52;;;;;;;63.17;54.55;;;21.60;45.00;;;;;;4853690;54;21000;-28
2021/12/07 03:05:09;;;;;;;64.18;54.47;;;21.60;44.80;;;;;;4823810;54;21023;-28
2021/12/07 03:26:32;;;;;;;60.08;51.55;;;21.50;44.70;;;;;;4794621;54;21556;-33
2021/12/07 03:31:33;;;;;;;58.70;49.65;;;21.50;44.80;;;;;;4812054;54;21020;-34
2021/12/07 03:36:34;;;;;;;61.45;51.88;;;21.50;44.70;;;;;;4822603;54;21341;-29
2021/12/07 03:41:35;;;;;;;59.47;50.30;;;21.50;44.80;;;;;;4794898;58;21183;-32
2021/12/07 03:46:36;;;;;;;57.85;48.20;;;21.50;44.70;;;;;;4801866;54;21027;-31
2021/12/07 03:51:37;;;;;;;60.20;50.33;;;21.50;44.50;;;;;;4794899;58;20988;-32
2021/12/07 03:56:40;;;;;;;55.30;47.85;;;21.50;44.80;;;;;;4803748;54;21069;-30
2021/12/07 04:01:41;;;;;;;54.83;47.08;;;21.50;44.60;;;;;;4843861;54;21051;-27
2021/12/07 04:06:42;;;;;;;57.00;49.00;;;21.50;45.20;;;;;;4828884;54;21063;-31
2021/12/07 04:11:43;;;;;;;54.45;47.10;;;21.50;44.50;;;;;;4794175;58;21051;-26
2021/12/07 04:16:45;;;;;;;56.60;47.53;;;21.50;44.50;;;;;;4794578;58;21073;-25
2021/12/07 04:21:46;;;;;;;55.25;45.92;;;21.50;44.50;;;;;;4795206;58;21144;-25
2021/12/07 04:26:47;;;;;;;57.00;46.67;;;21.50;44.40;;;;;;4807889;54;21120;-27
2021/12/07 04:31:48;;;;;;;53.67;46.47;;;21.50;44.40;;;;;;4823261;54;21478;-25
2021/12/07 04:36:49;;;;;;;52.62;45.20;;;21.50;44.40;;;;;;4810012;54;21043;-25
2021/12/07 04:41:51;;;;;;;53.05;44.58;;;21.50;44.40;;;;;;4825809;54;20996;-27
2021/12/07 04:47:16;;;;;;;52.25;44.65;;;21.50;44.40;;;;;;4814846;54;21015;-25
2021/12/07 04:57:47;;;;;;;49.72;43.05;;;21.50;44.40;;;;;;4826270;54;21582;-28
2021/12/07 05:03:03;;;;;;;47.60;41.65;;;21.50;44.40;;;;;;4808648;54;21531;-26
2021/12/07 05:08:09;;;;;;;49.85;43.25;;;21.50;44.60;;;;;;4811042;54;21538;-32
2021/12/07 05:13:35;;;;;;;47.42;41.92;;;21.50;44.50;;;;;;4815244;54;21486;-27
2021/12/07 05:19:02;;;;;;;48.07;41.20;;;21.50;44.60;;;;;;4795654;58;22379;-30
2021/12/07 05:24:25;;;;;;;49.13;41.42;;;21.50;44.60;;;;;;4809790;54;21521;-31
2021/12/07 05:40:18;;;;;;;45.40;38.88;;;21.40;44.60;;;;;;4794854;54;21024;-28
2021/12/07 05:45:23;;;;;;;43.63;38.85;;;21.50;44.80;;;;;;4797121;54;21566;-24
2021/12/07 05:50:27;;;;;;;48.42;41.00;;;21.50;44.90;;;;;;4804768;54;21068;-30
2021/12/07 05:55:28;;;;;;;47.03;39.35;;;21.40;44.90;;;;;;4814775;54;21024;-30
2021/12/07 06:00:32;;;;;;;45.95;38.58;;;21.40;45.00;;;;;;4800927;54;21099;-28
2021/12/07 06:05:33;;;;;;;44.08;37.58;;;21.50;45.00;;;;;;4807817;54;21064;-29
2021/12/07 06:10:36;;;;;;;45.05;38.22;;;21.50;44.90;;;;;;4808363;54;21091;-26
2021/12/07 06:15:42;;;;;;;42.17;35.67;;;21.50;45.00;;;;;;4876688;54;21119;-27
2021/12/07 06:20:43;;;;;;;41.30;35.70;;;21.40;44.90;;;;;;4832403;54;21585;-26
2021/12/07 06:25:46;;;;;;;40.03;34.80;;;21.50;45.60;;;;;;4797896;54;21035;-27
2021/12/07 06:30:48;;;;;;;43.22;37.40;;;21.50;45.10;;;;;;4815733;54;21003;-27
2021/12/07 06:35:51;;;;;;;40.42;35.60;;;21.40;44.90;;;;;;4804014;54;21107;-26
2021/12/07 06:40:52;;;;;;;40.75;34.63;;;21.40;45.00;;;;;;4795961;58;20995;-31
2021/12/07 06:45:54;;;;;;;41.58;36.35;;;21.40;44.90;;;;;;4807352;54;21075;-26
2021/12/07 06:50:55;;;;;;;39.75;34.42;;;21.40;44.90;;;;;;4823320;54;21093;-30
2021/12/07 06:55:56;;;;;;;40.25;34.30;;;21.40;44.90;;;;;;4802161;54;21019;-36
2021/12/07 07:00:57;;;;;;;41.20;35.90;;;21.40;45.00;;;;;;4795566;54;21035;-30
2021/12/07 07:05:58;;;;;;;40.38;35.00;;;21.40;44.80;;;;;;4803877;54;21015;-31
2021/12/07 07:10:59;;;;;;;39.58;34.45;;;21.40;44.80;;;;;;4794412;58;21078;-33
2021/12/07 07:16:01;;;;;;;40.85;34.45;;;21.40;44.80;;;;;;4804122;54;21015;-29
2021/12/07 07:21:03;;;;;;;41.58;34.97;;;21.40;44.80;;;;;;4795402;58;20988;-29
2021/12/07 07:26:04;;;;;;;39.05;34.83;;;21.40;44.70;;;;;;4813915;54;21068;-31
2021/12/07 07:31:08;;;;;;;39.25;34.83;;;21.40;44.90;;;;;;4828759;54;21052;-29
2021/12/07 07:36:10;;;;;;;40.92;34.78;;;21.40;44.80;;;;;;4803466;54;21116;-31
2021/12/07 07:41:10;;;;;;;41.97;36.20;;;21.40;44.70;;;;;;4797792;54;21827;-29
2021/12/07 07:46:11;;;;;;;42.15;35.80;;;21.40;44.80;;;;;;4794966;58;21127;-27
2021/12/07 07:51:13;;;;;;;44.55;36.92;;;21.40;44.70;;;;;;4795061;58;21051;-29
2021/12/07 07:56:14;;;;;;;42.60;36.92;;;21.40;44.80;;;;;;4813552;54;21129;-26
2021/12/07 08:01:15;;;;;;;42.15;36.60;;;21.40;45.40;;;;;;4803453;54;21008;-31
2021/12/07 08:06:16;;;;;;;57.78;47.88;;;21.40;44.60;;;;;;4795908;54;21071;-30
2021/12/07 08:11:17;;;;;;;55.55;45.35;;;21.40;43.40;;;;;;4808472;54;21067;-26
2021/12/07 08:16:18;;;;;;;53.92;45.78;;;21.40;43.80;;;;;;4796962;54;21035;-27
2021/12/07 08:21:20;;;;;;;52.45;45.30;;;21.50;44.40;;;;;;4797279;54;21064;-29
2021/12/07 08:26:23;;;;;;;55.05;45.03;;;21.50;44.70;;;;;;4794385;54;21027;-33
2021/12/07 08:31:25;;;;;;;53.25;45.35;;;21.60;44.90;;;;;;4806511;54;21094;-28
2021/12/07 08:36:27;;;;;;;52.45;44.60;;;21.60;45.00;;;;;;4832960;54;21075;-29
2021/12/07 08:41:29;;;;;;;58.40;45.85;;;21.70;45.10;;;;;;4812410;54;21004;-27
2021/12/07 08:46:30;;;;;;;56.70;46.35;;;21.70;45.20;;;;;;4798625;54;21084;-26
2021/12/07 08:51:31;;;;;;;60.85;46.60;;;21.80;45.50;;;;;;4807672;54;20999;-27
2021/12/07 09:01:52;;;;;;;61.83;48.75;;;21.90;45.80;;;;;;4810214;54;22135;-29
2021/12/07 09:06:53;;;;;;;62.67;50.40;;;21.90;45.90;;;;;;4798514;54;21695;-27
2021/12/07 09:11:54;;;;;;;63.97;50.28;;;21.90;46.20;;;;;;4794562;58;21191;-27
2021/12/07 09:16:56;;;;;;;63.60;51.83;;;21.90;46.00;;;;;;4825985;54;21107;-28
2021/12/07 09:21:57;;;;;;;64.05;50.92;;;21.90;46.00;;;;;;4807674;54;21043;-31
2021/12/07 09:26:59;;;;;;;62.53;51.47;;;21.90;45.90;;;;;;4797981;54;21982;-30
2021/12/07 09:32:01;;;;;;;65.28;54.38;;;22.00;46.10;;;;;;4828499;54;21461;-27
2021/12/07 09:37:02;;;;;;;68.18;54.42;;;22.00;46.20;;;;;;4796545;54;21060;-26
2021/12/07 09:42:03;;;;;;;67.35;53.70;;;22.10;46.40;;;;;;4835674;54;21119;-28
2021/12/07 09:47:04;;;;;;;68.65;55.53;;;22.20;46.50;;;;;;4805781;54;21474;-27
2021/12/07 09:52:06;;;;;;;71.50;57.42;;;22.30;46.50;;;;;;4808855;54;21051;-28
2021/12/07 09:57:07;;;;;;;70.55;57.97;;;22.40;46.50;;;;;;4806436;54;21008;-29
2021/12/07 10:02:08;;;;;;;72.30;59.97;;;22.40;46.30;;;;;;4836563;54;21067;-27
2021/12/07 10:07:09;;;;;;;75.28;59.33;;;22.60;46.50;;;;;;4802001;54;21605;-27
2021/12/07 10:12:21;;;;;;;71.82;56.22;;;22.60;46.50;;;;;;4824286;54;20996;-32
2021/12/07 10:17:23;;;;;;;79.78;62.67;;;22.70;46.50;;;;;;4795061;58;20996;-27
2021/12/07 10:22:24;;;;;;;79.60;64.85;;;22.80;46.50;;;;;;4813692;54;21067;-27
2021/12/07 10:30:06;;;;;;;81.82;63.00;;;22.80;46.40;;;;;;4818973;54;21499;-27
2021/12/07 10:35:36;;;;;;;84.72;67.12;;;22.90;46.60;;;;;;4811153;54;21453;-26
2021/12/07 10:41:21;;;;;;;89.25;69.45;;;22.90;46.60;;;;;;4798791;54;21000;-33
2021/12/07 10:46:43;;;;;;;87.07;68.93;;;22.90;46.60;;;;;;4795575;54;21040;-27
2021/12/07 10:55:17;;;;;;;92.82;73.55;;;22.90;46.70;;;;;;4803236;54;21027;-32
2021/12/07 11:00:44;;;;;;;94.35;76.80;;;23.10;46.50;;;;;;4795252;58;21079;-30
2021/12/07 11:05:50;;;;;;;;;;;23.20;46.50;;;;;;4805191;54;21616;-27
2021/12/07 11:10:54;;;;;;;102.62;79.87;;;23.30;46.50;;;;;;4853734;54;20833;-26
2021/12/07 11:16:02;;;;;;;103.50;84.22;;;23.40;46.60;;;;;;4793779;58;21617;-30
2021/12/07 11:21:08;;;;;;;;;;;23.40;46.40;;;;;;4798310;55;21644;-29
2021/12/07 11:32:00;;;;;;;110.20;90.22;;;23.60;46.40;;;;;;4810101;54;21499;-31
2021/12/07 11:37:13;;;;;;;110.53;88.45;;;23.60;46.20;;;;;;4820126;54;21063;-27
2021/12/07 11:42:29;;;;;;;114.07;92.10;;;23.60;46.30;;;;;;4795332;58;21106;-33
2021/12/07 11:47:42;;;;;;;119.87;93.23;;;23.70;46.30;;;;;;4811568;54;21161;-30
2021/12/07 11:52:44;;;;;;;131.80;103.43;;;23.70;46.20;;;;;;4793777;58;21144;-27
2021/12/07 11:57:46;;;;;;;137.18;106.12;;;23.80;45.90;;;;;;4831497;54;21028;-28
2021/12/07 12:02:48;;;;;;;132.63;108.47;;;23.80;45.90;;;;;;4824001;54;21585;-29
2021/12/07 12:07:49;;;;;;;142.32;113.18;;;23.80;45.90;;;;;;4873912;54;21019;-29
2021/12/07 12:13:12;;;;;;;138.80;110.97;;;23.80;45.70;;;;;;4838969;54;21076;-30
2021/12/07 12:18:31;;;;;;;152.45;118.82;;;23.80;45.60;;;;;;4794398;58;21478;-28
2021/12/07 12:24:31;;;;;;;151.98;122.07;;;23.80;45.50;;;;;;4809553;54;22341;-28
2021/12/07 12:29:35;;;;;;;158.25;125.62;;;23.80;45.40;;;;;;4799896;54;21004;-26
2021/12/07 12:34:46;;;;;;;155.45;123.90;;;23.90;45.40;;;;;;4794751;54;21103;-28
2021/12/07 12:40:03;;;;;;;155.68;123.60;;;23.90;45.40;;;;;;4799770;54;21051;-29
2021/12/07 12:45:21;;;;;;;158.40;124.30;;;23.90;45.30;;;;;;4803594;54;21011;-29
2021/12/07 12:51:01;;;;;;;164.13;128.90;;;24.00;45.30;;;;;;4814802;54;22202;-27
2021/12/07 12:56:09;;;;;;;157.80;125.30;;;24.00;45.20;;;;;;4800999;54;21096;-27
2021/12/07 13:01:28;;;;;;;166.00;131.52;;;24.00;45.20;;;;;;4818874;54;21072;-31
2021/12/07 13:07:26;;;;;;;161.75;129.07;;;24.00;45.10;;;;;;4795146;54;21012;-25
2021/12/07 13:12:38;;;;;;;158.68;126.57;;;24.00;45.00;;;;;;4795189;58;21530;-30
2021/12/07 13:17:45;;;;;;;155.60;124.12;;;23.90;44.80;;;;;;4795632;54;21521;-28
2021/12/07 13:23:11;;;;;;;157.90;126.57;;;24.00;44.60;;;;;;4823291;54;21023;-34
2021/12/07 13:28:32;;;;;;;151.80;123.90;;;24.00;44.60;;;;;;4808124;54;20996;-34
2021/12/07 13:33:40;;;;;;;156.23;123.38;;;24.00;44.50;;;;;;4800523;54;21032;-33
2021/12/07 13:38:40;;;;;;;;;;;24.10;44.60;;;;;;4802482;54;21034;-29
2021/12/07 13:43:44;;;;;;;152.15;121.03;;;24.10;45.20;;;;;;4818005;54;21152;-27
2021/12/07 13:48:47;;;;;;;149.12;122.15;;;24.10;44.50;;;;;;4832986;54;21036;-29
2021/12/07 13:53:50;;;;;;;148.25;119.80;;;24.10;44.60;;;;;;4812390;54;21051;-28
2021/12/07 13:59:00;;;;;;;147.02;119.00;;;24.20;44.70;;;;;;4831932;54;21055;-30
2021/12/07 14:04:02;;;;;;;144.37;119.65;;;24.20;44.70;;;;;;4794853;58;21110;-32
2021/12/07 14:09:11;;;;;;;148.02;117.40;;;24.20;44.90;;;;;;4817797;54;20980;-31
2021/12/07 14:14:14;;;;;;;146.13;118.07;;;24.20;45.00;;;;;;4802264;54;21554;-27
2021/12/07 14:19:18;;;;;;;143.50;119.70;;;24.30;45.20;;;;;;4801406;54;20972;-27
2021/12/07 14:24:20;;;;;;;144.45;117.28;;;24.30;45.30;;;;;;4818242;54;21465;-33
2021/12/07 14:29:25;;;;;;;147.77;113.22;;;24.30;45.30;;;;;;4829906;54;21519;-28
2021/12/07 14:34:30;;;;;;;147.62;117.53;;;24.30;45.40;;;;;;4822080;54;21083;-33
2021/12/07 14:39:34;;;;;;;145.18;115.00;;;24.30;45.20;;;;;;4841313;54;21585;-27
2021/12/07 14:44:45;;;;;;;147.18;115.53;;;24.30;45.20;;;;;;4825861;54;21019;-29
2021/12/07 14:49:52;;;;;;;141.02;114.28;;;24.30;45.20;;;;;;4795015;55;20996;-30
2021/12/07 14:54:54;;;;;;;138.68;114.45;;;24.30;45.20;;;;;;4804517;54;21071;-28
2021/12/07 14:59:59;;;;;;;135.02;112.97;;;24.40;45.10;;;;;;4802402;54;21068;-28
2021/12/07 15:05:05;;;;;;;138.95;114.70;;;24.40;45.10;;;;;;4794068;54;20996;-26
2021/12/07 15:10:18;;;;;;;140.68;115.45;;;24.40;45.10;;;;;;4820704;54;21514;-27
2021/12/07 15:15:19;;;;;;;144.02;118.20;;;24.40;44.80;;;;;;4816754;54;21000;-27
2021/12/07 15:20:19;;;;;;;144.55;118.82;;;24.40;44.80;;;;;;4795313;58;21088;-27
2021/12/07 15:25:21;;;;;;;157.30;124.03;;;24.40;44.70;;;;;;4820424;54;21008;-27
2021/12/07 15:30:22;;;;;;;161.40;129.63;;;24.30;44.00;;;;;;4820532;54;20996;-29
2021/12/07 15:35:25;;;;;;;155.73;125.40;;;24.20;43.30;;;;;;4808757;54;21059;-32
2021/12/07 15:40:26;;;;;;;161.25;125.57;;;24.10;43.20;;;;;;4806957;54;21541;-33
2021/12/07 15:45:27;;;;;;;151.60;123.62;;;24.10;43.40;;;;;;4802902;54;21091;-29
2021/12/07 15:50:31;;;;;;;157.02;121.75;;;24.00;43.40;;;;;;4802202;54;21073;-30
2021/12/07 15:55:37;;;;;;;155.55;125.03;;;23.90;43.50;;;;;;4814380;54;21540;-29
2021/12/07 16:00:43;;;;;;;156.10;126.00;;;23.80;43.70;;;;;;4801636;54;21051;-29
2021/12/07 16:05:48;;;;;;;218.75;167.18;;;23.70;43.70;;;;;;4834403;54;21474;-32
2021/12/07 16:10:54;;;;;;;188.68;145.82;;;23.60;39.00;;;;;;4819855;54;21016;-25
2021/12/07 16:15:59;;;;;;;180.13;141.53;;;23.50;41.00;;;;;;4828275;54;21130;-29
2021/12/07 16:21:01;;;;;;;181.57;141.45;;;23.50;41.50;;;;;;4794849;58;21125;-27
2021/12/07 16:26:04;;;;;;;169.20;135.10;;;23.40;41.80;;;;;;4802968;54;21095;-34
2021/12/07 16:31:05;;;;;;;171.87;135.73;;;23.30;41.90;;;;;;4806811;54;21031;-33
2021/12/07 16:36:07;;;;;;;172.30;135.12;;;23.30;42.20;;;;;;4811422;54;21142;-30
2021/12/07 16:41:09;;;;;;;176.48;139.12;;;23.20;42.40;;;;;;4802756;54;21015;-31
2021/12/07 16:46:11;;;;;;;165.65;131.15;;;23.10;42.50;;;;;;4815286;54;21015;-30
2021/12/07 16:51:12;;;;;;;173.75;133.30;;;23.10;42.70;;;;;;4801897;54;21047;-30
2021/12/07 16:56:13;;;;;;;175.65;134.63;;;23.10;42.80;;;;;;4805707;54;21107;-31
2021/12/07 17:01:16;;;;;;;171.98;136.20;;;23.00;42.90;;;;;;4833648;54;21855;-29
2021/12/07 17:06:19;;;;;;;166.05;131.30;;;23.00;43.10;;;;;;4794968;58;21455;-30
2021/12/07 17:11:19;;;;;;;167.00;131.18;;;22.90;43.20;;;;;;4834803;54;20988;-27
2021/12/07 17:16:20;;;;;;;162.82;127.97;;;22.90;43.30;;;;;;4801343;54;21003;-27
2021/12/07 17:21:21;;;;;;;165.70;130.65;;;22.90;43.40;;;;;;4799469;54;21478;-28
2021/12/07 17:26:22;;;;;;;160.37;127.50;;;22.90;43.50;;;;;;4795490;58;21088;-32
2021/12/07 17:31:23;;;;;;;161.88;127.97;;;22.80;43.60;;;;;;4829643;54;21032;-28
2021/12/07 17:36:24;;;;;;;166.10;129.95;;;22.80;43.70;;;;;;4820784;54;21039;-28
2021/12/07 17:41:26;;;;;;;163.98;130.27;;;22.80;43.80;;;;;;4820161;54;21040;-28
2021/12/07 17:46:28;;;;;;;158.07;124.78;;;22.80;43.80;;;;;;4809066;54;21023;-27
2021/12/07 17:51:29;;;;;;;159.35;127.15;;;22.70;43.80;;;;;;4795402;58;21554;-28
2021/12/07 17:56:31;;;;;;;157.43;127.70;;;22.70;43.90;;;;;;4798859;54;21023;-34
2021/12/07 18:01:32;;;;;;;160.63;129.02;;;22.70;43.90;;;;;;4831681;54;21075;-31
2021/12/07 18:06:32;;;;;;;164.48;128.32;;;22.70;44.00;;;;;;4822886;54;21525;-31
2021/12/07 18:11:33;;;;;;;158.77;127.75;;;22.70;44.10;;;;;;4804740;54;21076;-31
2021/12/07 18:16:34;;;;;;;157.60;128.57;;;22.60;44.10;;;;;;4828177;54;21067;-29
2021/12/07 18:21:36;;;;;;;161.98;130.18;;;22.60;44.10;;;;;;4805012;54;21008;-32
2021/12/07 18:26:37;;;;;;;162.50;126.43;;;22.60;44.20;;;;;;4802921;54;21047;-27
2021/12/07 18:31:38;;;;;;;158.57;128.57;;;22.60;44.30;;;;;;4795130;58;21051;-30
2021/12/07 18:36:39;;;;;;;160.88;127.03;;;22.60;44.30;;;;;;4800821;54;21120;-26
2021/12/07 18:41:40;;;;;;;160.32;126.72;;;22.50;44.30;;;;;;4798800;54;21462;-27
2021/12/07 18:46:43;;;;;;;163.85;127.53;;;22.60;44.40;;;;;;4830581;54;21008;-33
2021/12/07 18:51:45;;;;;;;162.93;128.62;;;22.50;44.40;;;;;;4798504;54;21043;-27
2021/12/07 18:56:46;;;;;;;150.82;125.22;;;22.50;44.40;;;;;;4813833;54;21457;-27
2021/12/07 19:01:47;;;;;;;155.07;124.60;;;22.50;44.40;;;;;;4822111;54;21474;-27
2021/12/07 19:06:50;;;;;;;150.93;123.35;;;22.50;44.50;;;;;;4812309;54;21106;-32
2021/12/07 19:11:51;;;;;;;152.82;122.65;;;22.50;44.50;;;;;;4795168;58;21003;-31
2021/12/07 19:16:52;;;;;;;153.10;123.28;;;22.50;44.50;;;;;;4793978;58;21003;-32
2021/12/07 19:21:53;;;;;;;153.00;123.20;;;22.40;44.60;;;;;;4797316;54;21056;-28
2021/12/07 19:26:54;;;;;;;149.90;122.03;;;22.40;44.50;;;;;;4805777;54;21008;-26
2021/12/07 19:31:55;;;;;;;148.77;119.45;;;22.40;44.60;;;;;;4796818;54;21087;-26
2021/12/07 19:37:01;;;;;;;150.05;120.53;;;22.40;44.60;;;;;;4797459;54;21007;-28
2021/12/07 19:42:03;;;;;;;146.50;119.33;;;22.40;44.60;;;;;;4796564;54;21589;-27
2021/12/07 19:47:04;;;;;;;151.73;121.85;;;22.40;44.70;;;;;;4813366;54;20989;-30
2021/12/07 19:52:06;;;;;;;152.45;120.90;;;22.40;44.60;;;;;;4819807;54;21008;-28
2021/12/07 19:57:07;;;;;;;149.95;120.37;;;22.40;44.70;;;;;;4838464;54;21036;-27
2021/12/07 20:02:09;;;;;;;145.12;117.60;;;22.40;45.30;;;;;;4839948;54;21071;-29
2021/12/07 20:07:11;;;;;;;142.95;115.82;;;22.40;44.70;;;;;;4813776;54;21162;-27
2021/12/07 20:12:12;;;;;;;143.07;116.53;;;22.30;44.70;;;;;;4820276;54;21043;-26
2021/12/07 20:17:16;;;;;;;138.30;114.78;;;22.40;44.70;;;;;;4811280;54;21083;-29
2021/12/07 20:22:17;;;;;;;142.87;115.00;;;22.30;44.70;;;;;;4826379;54;21541;-29
2021/12/07 20:27:19;;;;;;;137.80;112.68;;;22.30;44.70;;;;;;4806715;54;21042;-29
2021/12/07 20:32:20;;;;;;;141.15;114.00;;;22.30;44.70;;;;;;4820545;54;21565;-33
2021/12/07 20:37:21;;;;;;;136.15;111.95;;;22.30;44.70;;;;;;4804801;54;21067;-30
2021/12/07 20:42:21;;;;;;;138.32;110.82;;;22.30;44.70;;;;;;4814849;54;21008;-28
2021/12/07 20:47:22;;;;;;;134.75;111.50;;;22.30;44.70;;;;;;4807740;54;21561;-33
2021/12/07 20:52:23;;;;;;;133.48;108.25;;;22.30;44.70;;;;;;4824073;54;21525;-29
2021/12/07 20:57:25;;;;;;;137.15;111.75;;;22.30;44.70;;;;;;4796115;54;21039;-32
2021/12/07 21:02:26;;;;;;;131.48;107.00;;;22.20;44.70;;;;;;4811213;54;21079;-33
2021/12/07 21:07:27;;;;;;;131.87;108.63;;;22.20;44.60;;;;;;4852141;54;21470;-30
2021/12/07 21:12:27;;;;;;;129.52;107.37;;;22.20;44.70;;;;;;4795850;58;21004;-30
2021/12/07 21:17:28;;;;;;;133.30;107.50;;;22.20;44.60;;;;;;4808789;54;21023;-35
2021/12/07 21:22:30;;;;;;;130.07;105.05;;;22.20;44.70;;;;;;4795231;58;21153;-26
2021/12/07 21:27:32;;;;;;;128.60;105.72;;;22.20;44.60;;;;;;4809506;54;21451;-26
2021/12/07 21:32:33;;;;;;;125.72;104.30;;;22.20;44.60;;;;;;4820498;54;21047;-28
2021/12/07 21:37:36;;;;;;;127.00;104.28;;;22.20;44.60;;;;;;4808708;54;21004;-30
2021/12/07 21:42:37;;;;;;;126.22;102.03;;;22.20;44.60;;;;;;4812661;54;21048;-29
2021/12/07 21:47:39;;;;;;;127.18;103.32;;;22.20;44.60;;;;;;4824767;54;21103;-26
2021/12/07 21:52:40;;;;;;;122.05;100.87;;;22.20;44.60;;;;;;4804428;54;21031;-33
2021/12/07 21:57:41;;;;;;;120.93;100.60;;;22.20;44.60;;;;;;4831892;54;21091;-30
2021/12/07 22:02:43;;;;;;;121.10;100.65;;;22.20;44.60;;;;;;4803224;54;21023;-28
2021/12/07 22:07:46;;;;;;;120.55;99.90;;;22.20;44.60;;;;;;4795325;58;21025;-32
2021/12/07 22:12:48;;;;;;;117.20;96.82;;;22.10;44.50;;;;;;4826811;54;21035;-31
2021/12/07 22:17:49;;;;;;;118.18;98.47;;;22.10;44.50;;;;;;4825468;54;21023;-28
2021/12/07 22:22:51;;;;;;;118.70;96.72;;;22.10;44.50;;;;;;4798647;54;21486;-26
2021/12/07 22:27:52;;;;;;;118.30;96.93;;;22.10;44.40;;;;;;4807853;54;21008;-27
2021/12/07 22:32:52;;;;;;;118.93;97.68;;;22.10;44.50;;;;;;4796658;54;21126;-29
2021/12/07 22:37:54;;;;;;;119.75;98.85;;;22.10;44.40;;;;;;4818668;54;21017;-31
2021/12/07 22:42:55;;;;;;;118.47;97.10;;;22.10;44.40;;;;;;4799814;54;20996;-31
2021/12/07 22:47:55;;;;;;;118.07;96.60;;;22.10;44.30;;;;;;4799364;54;21569;-33
2021/12/07 22:52:56;;;;;;;119.22;97.00;;;22.10;44.40;;;;;;4794642;58;21123;-26
2021/12/07 22:57:58;;;;;;;116.72;94.10;;;22.10;44.30;;;;;;4801681;54;21455;-32
2021/12/07 23:03:03;;;;;;;117.95;95.72;;;22.00;44.30;;;;;;4796983;54;21000;-30
2021/12/07 23:08:05;;;;;;;115.18;92.70;;;22.10;44.30;;;;;;4819938;54;21136;-26
2021/12/07 23:13:10;;;;;;;119.78;96.87;;;22.10;44.30;;;;;;4821142;54;21067;-29
2021/12/07 23:18:18;;;;;;;115.57;94.15;;;22.10;44.20;;;;;;4807126;54;21031;-26
2021/12/07 23:23:21;;;;;;;117.50;94.05;;;22.00;44.20;;;;;;4795352;58;21510;-30
2021/12/07 23:28:26;;;;;;;116.22;93.45;;;22.10;44.30;;;;;;4820481;54;21000;-26
2021/12/07 23:33:29;;;;;;;114.75;93.80;;;22.00;44.10;;;;;;4794051;58;21079;-30
2021/12/07 23:38:31;;;;;;;115.65;93.57;;;22.00;44.10;;;;;;4798919;54;22002;-28
2021/12/07 23:43:32;;;;;;;115.12;93.57;;;22.00;44.10;;;;;;4815211;54;22040;-28
2021/12/07 23:48:33;;;;;;;113.12;91.43;;;22.00;44.10;;;;;;4812501;54;21039;-32
2021/12/07 23:53:34;;;;;;;114.60;93.12;;;22.00;44.00;;;;;;4794591;58;21091;-27
2021/12/07 23:58:36;;;;;;;114.65;92.53;;;22.00;44.00;;;;;;4818489;54;21110;-33
